sensor_id;sensor_type;location;lat;lon;timestamp;P1;durP1;ratioP1;P2;durP2;ratioP2
37297;SDS011;30517;51.932;4.278;2023-03-05T00:01:46;2.40;;;1.08;;
37297;SDS011;30517;51.932;4.278;2023-03-05T00:04:27;4.28;;;1.23;;
37297;SDS011;30517;51.932;4.278;2023-03-05T00:07:08;2.50;;;1.08;;
37297;SDS011;30517;51.932;4.278;2023-03-05T00:09:51;3.27;;;1.77;;
37297;SDS011;30517;51.932;4.278;2023-03-05T00:12:32;3.08;;;1.20;;
37297;SDS011;30517;51.932;4.278;2023-03-05T00:15:12;3.10;;;1.10;;
37297;SDS011;30517;51.932;4.278;2023-03-05T00:17:53;4.07;;;1.10;;
37297;SDS011;30517;51.932;4.278;2023-03-05T00:20:34;2.70;;;1.23;;
37297;SDS011;30517;51.932;4.278;2023-03-05T00:23:15;2.63;;;1.08;;
37297;SDS011;30517;51.932;4.278;2023-03-05T00:25:56;2.97;;;1.48;;
37297;SDS011;30517;51.932;4.278;2023-03-05T00:28:40;1.80;;;1.02;;
37297;SDS011;30517;51.932;4.278;2023-03-05T00:31:27;2.42;;;1.10;;
37297;SDS011;30517;51.932;4.278;2023-03-05T00:34:11;1.85;;;1.10;;
37297;SDS011;30517;51.932;4.278;2023-03-05T00:36:54;1.98;;;1.02;;
37297;SDS011;30517;51.932;4.278;2023-03-05T00:39:35;1.77;;;1.00;;
37297;SDS011;30517;51.932;4.278;2023-03-05T00:42:16;2.33;;;1.30;;
37297;SDS011;30517;51.932;4.278;2023-03-05T00:44:56;2.50;;;1.13;;
37297;SDS011;30517;51.932;4.278;2023-03-05T00:47:37;2.70;;;1.30;;
37297;SDS011;30517;51.932;4.278;2023-03-05T00:50:18;3.70;;;1.48;;
37297;SDS011;30517;51.932;4.278;2023-03-05T00:52:59;3.05;;;1.20;;
37297;SDS011;30517;51.932;4.278;2023-03-05T00:55:40;6.45;;;1.27;;
37297;SDS011;30517;51.932;4.278;2023-03-05T00:58:21;3.25;;;1.25;;
37297;SDS011;30517;51.932;4.278;2023-03-05T01:01:02;2.95;;;1.27;;
37297;SDS011;30517;51.932;4.278;2023-03-05T01:03:43;4.30;;;1.10;;
37297;SDS011;30517;51.932;4.278;2023-03-05T01:06:24;4.03;;;1.20;;
37297;SDS011;30517;51.932;4.278;2023-03-05T01:09:05;1.80;;;1.10;;
37297;SDS011;30517;51.932;4.278;2023-03-05T01:11:46;2.22;;;0.93;;
37297;SDS011;30517;51.932;4.278;2023-03-05T01:14:27;2.53;;;1.10;;
37297;SDS011;30517;51.932;4.278;2023-03-05T01:17:07;3.70;;;1.40;;
37297;SDS011;30517;51.932;4.278;2023-03-05T01:19:48;2.75;;;1.10;;
37297;SDS011;30517;51.932;4.278;2023-03-05T01:22:29;3.17;;;1.55;;
37297;SDS011;30517;51.932;4.278;2023-03-05T01:25:11;5.05;;;1.35;;
37297;SDS011;30517;51.932;4.278;2023-03-05T01:27:53;1.88;;;1.10;;
37297;SDS011;30517;51.932;4.278;2023-03-05T01:30:34;2.70;;;1.33;;
37297;SDS011;30517;51.932;4.278;2023-03-05T01:33:15;6.15;;;1.48;;
37297;SDS011;30517;51.932;4.278;2023-03-05T01:35:56;4.05;;;1.40;;
37297;SDS011;30517;51.932;4.278;2023-03-05T01:38:37;5.72;;;1.30;;
37297;SDS011;30517;51.932;4.278;2023-03-05T01:41:18;3.72;;;1.23;;
37297;SDS011;30517;51.932;4.278;2023-03-05T01:44:00;2.33;;;1.20;;
37297;SDS011;30517;51.932;4.278;2023-03-05T01:46:41;1.75;;;1.10;;
37297;SDS011;30517;51.932;4.278;2023-03-05T01:49:23;2.05;;;0.90;;
37297;SDS011;30517;51.932;4.278;2023-03-05T01:52:10;1.85;;;0.95;;
37297;SDS011;30517;51.932;4.278;2023-03-05T01:55:00;1.67;;;0.88;;
37297;SDS011;30517;51.932;4.278;2023-03-05T01:57:45;3.45;;;1.17;;
37297;SDS011;30517;51.932;4.278;2023-03-05T02:00:40;1.30;;;0.90;;
37297;SDS011;30517;51.932;4.278;2023-03-05T02:03:25;3.03;;;1.10;;
37297;SDS011;30517;51.932;4.278;2023-03-05T02:06:06;2.90;;;1.10;;
37297;SDS011;30517;51.932;4.278;2023-03-05T02:08:46;2.38;;;1.10;;
37297;SDS011;30517;51.932;4.278;2023-03-05T02:11:27;1.25;;;0.73;;
37297;SDS011;30517;51.932;4.278;2023-03-05T02:14:09;3.13;;;1.15;;
37297;SDS011;30517;51.932;4.278;2023-03-05T02:16:50;2.75;;;1.17;;
37297;SDS011;30517;51.932;4.278;2023-03-05T02:19:44;3.83;;;1.20;;
37297;SDS011;30517;51.932;4.278;2023-03-05T02:22:35;3.22;;;1.58;;
37297;SDS011;30517;51.932;4.278;2023-03-05T02:25:18;2.95;;;1.38;;
37297;SDS011;30517;51.932;4.278;2023-03-05T02:30:54;4.60;;;1.25;;
37297;SDS011;30517;51.932;4.278;2023-03-05T02:33:35;2.90;;;1.33;;
37297;SDS011;30517;51.932;4.278;2023-03-05T02:36:16;3.33;;;1.27;;
37297;SDS011;30517;51.932;4.278;2023-03-05T02:38:57;1.27;;;0.88;;
37297;SDS011;30517;51.932;4.278;2023-03-05T02:41:38;2.72;;;1.20;;
37297;SDS011;30517;51.932;4.278;2023-03-05T02:44:19;2.22;;;0.90;;
37297;SDS011;30517;51.932;4.278;2023-03-05T02:47:00;2.88;;;1.15;;
37297;SDS011;30517;51.932;4.278;2023-03-05T02:49:40;2.00;;;1.00;;
37297;SDS011;30517;51.932;4.278;2023-03-05T02:52:21;1.95;;;0.90;;
37297;SDS011;30517;51.932;4.278;2023-03-05T02:55:03;1.85;;;0.65;;
37297;SDS011;30517;51.932;4.278;2023-03-05T02:57:44;1.80;;;0.93;;
37297;SDS011;30517;51.932;4.278;2023-03-05T03:00:25;2.92;;;0.90;;
37297;SDS011;30517;51.932;4.278;2023-03-05T03:03:06;2.20;;;0.98;;
37297;SDS011;30517;51.932;4.278;2023-03-05T03:05:47;1.73;;;0.85;;
37297;SDS011;30517;51.932;4.278;2023-03-05T03:08:27;1.45;;;0.93;;
37297;SDS011;30517;51.932;4.278;2023-03-05T03:11:09;4.20;;;1.20;;
37297;SDS011;30517;51.932;4.278;2023-03-05T03:13:52;1.75;;;0.80;;
37297;SDS011;30517;51.932;4.278;2023-03-05T03:16:33;1.73;;;0.90;;
37297;SDS011;30517;51.932;4.278;2023-03-05T03:19:14;1.17;;;0.73;;
37297;SDS011;30517;51.932;4.278;2023-03-05T03:21:54;2.10;;;0.90;;
37297;SDS011;30517;51.932;4.278;2023-03-05T03:24:36;2.03;;;1.08;;
37297;SDS011;30517;51.932;4.278;2023-03-05T03:27:17;1.25;;;0.77;;
37297;SDS011;30517;51.932;4.278;2023-03-05T03:29:58;2.03;;;1.00;;
37297;SDS011;30517;51.932;4.278;2023-03-05T03:32:43;1.27;;;0.75;;
37297;SDS011;30517;51.932;4.278;2023-03-05T03:35:24;1.40;;;0.98;;
37297;SDS011;30517;51.932;4.278;2023-03-05T03:38:05;2.30;;;1.02;;
37297;SDS011;30517;51.932;4.278;2023-03-05T03:40:46;1.90;;;0.85;;
37297;SDS011;30517;51.932;4.278;2023-03-05T03:43:26;5.70;;;1.10;;
37297;SDS011;30517;51.932;4.278;2023-03-05T03:46:08;2.58;;;1.13;;
37297;SDS011;30517;51.932;4.278;2023-03-05T03:48:49;1.55;;;0.68;;
37297;SDS011;30517;51.932;4.278;2023-03-05T03:51:30;1.50;;;0.70;;
37297;SDS011;30517;51.932;4.278;2023-03-05T03:54:12;3.00;;;0.93;;
37297;SDS011;30517;51.932;4.278;2023-03-05T03:56:54;1.27;;;0.70;;
37297;SDS011;30517;51.932;4.278;2023-03-05T03:59:34;3.80;;;0.95;;
37297;SDS011;30517;51.932;4.278;2023-03-05T04:02:15;1.45;;;0.70;;
37297;SDS011;30517;51.932;4.278;2023-03-05T04:04:56;2.22;;;0.90;;
37297;SDS011;30517;51.932;4.278;2023-03-05T04:07:37;1.50;;;0.90;;
37297;SDS011;30517;51.932;4.278;2023-03-05T04:10:17;2.33;;;0.93;;
37297;SDS011;30517;51.932;4.278;2023-03-05T04:12:58;1.67;;;0.85;;
37297;SDS011;30517;51.932;4.278;2023-03-05T04:15:39;1.90;;;0.80;;
37297;SDS011;30517;51.932;4.278;2023-03-05T04:18:20;1.67;;;0.80;;
37297;SDS011;30517;51.932;4.278;2023-03-05T04:21:02;0.95;;;0.65;;
37297;SDS011;30517;51.932;4.278;2023-03-05T04:23:43;0.98;;;0.55;;
37297;SDS011;30517;51.932;4.278;2023-03-05T04:26:24;1.38;;;0.60;;
37297;SDS011;30517;51.932;4.278;2023-03-05T04:29:05;1.70;;;0.80;;
37297;SDS011;30517;51.932;4.278;2023-03-05T04:31:46;2.15;;;0.80;;
37297;SDS011;30517;51.932;4.278;2023-03-05T04:34:26;2.47;;;1.00;;
37297;SDS011;30517;51.932;4.278;2023-03-05T04:37:07;1.15;;;0.63;;
37297;SDS011;30517;51.932;4.278;2023-03-05T04:39:48;1.08;;;0.73;;
37297;SDS011;30517;51.932;4.278;2023-03-05T04:42:29;1.30;;;0.73;;
37297;SDS011;30517;51.932;4.278;2023-03-05T04:45:10;1.10;;;0.77;;
37297;SDS011;30517;51.932;4.278;2023-03-05T04:47:51;2.30;;;1.05;;
37297;SDS011;30517;51.932;4.278;2023-03-05T04:50:32;1.95;;;0.95;;
37297;SDS011;30517;51.932;4.278;2023-03-05T04:53:13;3.30;;;0.88;;
37297;SDS011;30517;51.932;4.278;2023-03-05T04:55:54;0.73;;;0.68;;
37297;SDS011;30517;51.932;4.278;2023-03-05T04:58:35;1.25;;;0.75;;
37297;SDS011;30517;51.932;4.278;2023-03-05T05:01:16;1.55;;;1.02;;
37297;SDS011;30517;51.932;4.278;2023-03-05T05:03:57;2.08;;;0.82;;
37297;SDS011;30517;51.932;4.278;2023-03-05T05:06:38;1.17;;;0.75;;
37297;SDS011;30517;51.932;4.278;2023-03-05T05:09:18;1.00;;;0.55;;
37297;SDS011;30517;51.932;4.278;2023-03-05T05:11:59;1.33;;;0.85;;
37297;SDS011;30517;51.932;4.278;2023-03-05T05:14:40;0.80;;;0.60;;
37297;SDS011;30517;51.932;4.278;2023-03-05T05:17:21;0.88;;;0.60;;
37297;SDS011;30517;51.932;4.278;2023-03-05T05:20:02;1.70;;;0.90;;
37297;SDS011;30517;51.932;4.278;2023-03-05T05:22:45;1.70;;;0.60;;
37297;SDS011;30517;51.932;4.278;2023-03-05T05:25:26;0.75;;;0.52;;
37297;SDS011;30517;51.932;4.278;2023-03-05T05:28:07;1.05;;;0.60;;
37297;SDS011;30517;51.932;4.278;2023-03-05T05:30:49;0.50;;;0.50;;
37297;SDS011;30517;51.932;4.278;2023-03-05T05:33:30;1.30;;;0.65;;
37297;SDS011;30517;51.932;4.278;2023-03-05T05:36:11;0.70;;;0.65;;
37297;SDS011;30517;51.932;4.278;2023-03-05T05:38:54;0.50;;;0.50;;
37297;SDS011;30517;51.932;4.278;2023-03-05T05:41:35;1.27;;;0.52;;
37297;SDS011;30517;51.932;4.278;2023-03-05T05:44:16;0.52;;;0.43;;
37297;SDS011;30517;51.932;4.278;2023-03-05T05:46:57;1.25;;;0.70;;
37297;SDS011;30517;51.932;4.278;2023-03-05T05:49:37;1.38;;;0.50;;
37297;SDS011;30517;51.932;4.278;2023-03-05T05:52:18;1.25;;;0.60;;
37297;SDS011;30517;51.932;4.278;2023-03-05T05:54:59;1.40;;;0.60;;
37297;SDS011;30517;51.932;4.278;2023-03-05T05:57:40;0.88;;;0.68;;
37297;SDS011;30517;51.932;4.278;2023-03-05T06:00:21;2.72;;;0.70;;
37297;SDS011;30517;51.932;4.278;2023-03-05T06:03:02;0.40;;;0.40;;
37297;SDS011;30517;51.932;4.278;2023-03-05T06:05:43;1.35;;;0.80;;
37297;SDS011;30517;51.932;4.278;2023-03-05T06:08:26;0.70;;;0.43;;
37297;SDS011;30517;51.932;4.278;2023-03-05T06:11:07;0.73;;;0.55;;
37297;SDS011;30517;51.932;4.278;2023-03-05T06:13:48;2.38;;;0.80;;
37297;SDS011;30517;51.932;4.278;2023-03-05T06:16:29;0.65;;;0.50;;
37297;SDS011;30517;51.932;4.278;2023-03-05T06:19:11;2.22;;;0.68;;
37297;SDS011;30517;51.932;4.278;2023-03-05T06:21:52;0.68;;;0.60;;
37297;SDS011;30517;51.932;4.278;2023-03-05T06:24:33;1.42;;;0.55;;
37297;SDS011;30517;51.932;4.278;2023-03-05T06:27:14;1.15;;;0.80;;
37297;SDS011;30517;51.932;4.278;2023-03-05T06:29:55;1.02;;;0.70;;
37297;SDS011;30517;51.932;4.278;2023-03-05T06:32:36;1.00;;;0.70;;
37297;SDS011;30517;51.932;4.278;2023-03-05T06:35:16;4.18;;;0.98;;
37297;SDS011;30517;51.932;4.278;2023-03-05T06:37:57;1.25;;;0.60;;
37297;SDS011;30517;51.932;4.278;2023-03-05T06:40:38;1.63;;;0.75;;
37297;SDS011;30517;51.932;4.278;2023-03-05T06:43:19;1.55;;;0.50;;
37297;SDS011;30517;51.932;4.278;2023-03-05T06:46:01;0.40;;;0.40;;
37297;SDS011;30517;51.932;4.278;2023-03-05T06:48:43;0.50;;;0.50;;
37297;SDS011;30517;51.932;4.278;2023-03-05T06:51:34;0.47;;;0.40;;
37297;SDS011;30517;51.932;4.278;2023-03-05T06:54:17;0.50;;;0.50;;
37297;SDS011;30517;51.932;4.278;2023-03-05T06:56:58;1.45;;;0.60;;
37297;SDS011;30517;51.932;4.278;2023-03-05T06:59:39;1.58;;;0.60;;
37297;SDS011;30517;51.932;4.278;2023-03-05T07:02:20;0.80;;;0.50;;
37297;SDS011;30517;51.932;4.278;2023-03-05T07:05:01;1.42;;;0.60;;
37297;SDS011;30517;51.932;4.278;2023-03-05T07:07:42;0.43;;;0.40;;
37297;SDS011;30517;51.932;4.278;2023-03-05T07:10:22;1.48;;;0.63;;
37297;SDS011;30517;51.932;4.278;2023-03-05T07:13:03;1.00;;;0.60;;
37297;SDS011;30517;51.932;4.278;2023-03-05T07:15:44;0.80;;;0.52;;
37297;SDS011;30517;51.932;4.278;2023-03-05T07:18:25;0.43;;;0.43;;
37297;SDS011;30517;51.932;4.278;2023-03-05T07:21:06;0.90;;;0.50;;
37297;SDS011;30517;51.932;4.278;2023-03-05T07:23:48;0.40;;;0.40;;
37297;SDS011;30517;51.932;4.278;2023-03-05T07:26:29;0.52;;;0.40;;
37297;SDS011;30517;51.932;4.278;2023-03-05T07:29:12;2.22;;;0.65;;
37297;SDS011;30517;51.932;4.278;2023-03-05T07:31:53;0.70;;;0.40;;
37297;SDS011;30517;51.932;4.278;2023-03-05T07:34:35;0.55;;;0.55;;
37297;SDS011;30517;51.932;4.278;2023-03-05T07:37:17;2.28;;;0.63;;
37297;SDS011;30517;51.932;4.278;2023-03-05T07:39:58;0.60;;;0.50;;
37297;SDS011;30517;51.932;4.278;2023-03-05T07:42:39;1.73;;;0.65;;
37297;SDS011;30517;51.932;4.278;2023-03-05T07:45:20;1.10;;;0.60;;
37297;SDS011;30517;51.932;4.278;2023-03-05T07:48:01;2.30;;;0.65;;
37297;SDS011;30517;51.932;4.278;2023-03-05T07:50:42;1.05;;;0.52;;
37297;SDS011;30517;51.932;4.278;2023-03-05T07:53:23;2.10;;;0.68;;
37297;SDS011;30517;51.932;4.278;2023-03-05T07:56:04;0.57;;;0.57;;
37297;SDS011;30517;51.932;4.278;2023-03-05T07:58:45;0.77;;;0.40;;
37297;SDS011;30517;51.932;4.278;2023-03-05T08:01:26;0.95;;;0.60;;
37297;SDS011;30517;51.932;4.278;2023-03-05T08:04:08;0.40;;;0.40;;
37297;SDS011;30517;51.932;4.278;2023-03-05T08:06:49;1.15;;;0.60;;
37297;SDS011;30517;51.932;4.278;2023-03-05T08:09:30;1.05;;;0.50;;
37297;SDS011;30517;51.932;4.278;2023-03-05T08:12:11;0.50;;;0.50;;
37297;SDS011;30517;51.932;4.278;2023-03-05T08:14:52;1.13;;;0.52;;
37297;SDS011;30517;51.932;4.278;2023-03-05T08:17:32;1.48;;;0.65;;
37297;SDS011;30517;51.932;4.278;2023-03-05T08:20:13;1.90;;;0.40;;
37297;SDS011;30517;51.932;4.278;2023-03-05T08:22:54;0.40;;;0.40;;
37297;SDS011;30517;51.932;4.278;2023-03-05T08:25:35;0.85;;;0.55;;
37297;SDS011;30517;51.932;4.278;2023-03-05T08:28:17;2.10;;;0.65;;
37297;SDS011;30517;51.932;4.278;2023-03-05T08:30:58;1.55;;;0.45;;
37297;SDS011;30517;51.932;4.278;2023-03-05T08:33:39;0.35;;;0.35;;
37297;SDS011;30517;51.932;4.278;2023-03-05T08:36:20;0.47;;;0.47;;
37297;SDS011;30517;51.932;4.278;2023-03-05T08:39:01;0.65;;;0.52;;
37297;SDS011;30517;51.932;4.278;2023-03-05T08:41:42;1.13;;;0.60;;
37297;SDS011;30517;51.932;4.278;2023-03-05T08:44:23;1.00;;;0.55;;
37297;SDS011;30517;51.932;4.278;2023-03-05T08:47:04;1.10;;;0.70;;
37297;SDS011;30517;51.932;4.278;2023-03-05T08:49:45;0.52;;;0.40;;
37297;SDS011;30517;51.932;4.278;2023-03-05T08:52:27;0.40;;;0.40;;
37297;SDS011;30517;51.932;4.278;2023-03-05T08:55:07;2.05;;;0.60;;
37297;SDS011;30517;51.932;4.278;2023-03-05T08:57:49;1.58;;;0.65;;
37297;SDS011;30517;51.932;4.278;2023-03-05T09:00:29;0.52;;;0.40;;
37297;SDS011;30517;51.932;4.278;2023-03-05T09:03:10;0.55;;;0.40;;
37297;SDS011;30517;51.932;4.278;2023-03-05T09:05:51;0.30;;;0.30;;
37297;SDS011;30517;51.932;4.278;2023-03-05T09:08:32;0.40;;;0.40;;
37297;SDS011;30517;51.932;4.278;2023-03-05T09:11:14;1.40;;;0.95;;
37297;SDS011;30517;51.932;4.278;2023-03-05T09:13:55;0.60;;;0.50;;
37297;SDS011;30517;51.932;4.278;2023-03-05T09:16:36;2.00;;;0.60;;
37297;SDS011;30517;51.932;4.278;2023-03-05T09:19:19;0.43;;;0.43;;
37297;SDS011;30517;51.932;4.278;2023-03-05T09:22:00;1.17;;;0.60;;
37297;SDS011;30517;51.932;4.278;2023-03-05T09:24:41;1.27;;;0.50;;
37297;SDS011;30517;51.932;4.278;2023-03-05T09:27:22;1.90;;;0.70;;
37297;SDS011;30517;51.932;4.278;2023-03-05T09:30:04;1.40;;;0.47;;
37297;SDS011;30517;51.932;4.278;2023-03-05T09:32:45;1.20;;;0.65;;
37297;SDS011;30517;51.932;4.278;2023-03-05T09:35:26;1.27;;;0.65;;
37297;SDS011;30517;51.932;4.278;2023-03-05T09:38:07;1.33;;;0.88;;
37297;SDS011;30517;51.932;4.278;2023-03-05T09:40:58;0.65;;;0.40;;
37297;SDS011;30517;51.932;4.278;2023-03-05T09:53:37;0.55;;;0.45;;
37297;SDS011;30517;51.932;4.278;2023-03-05T09:56:44;1.13;;;0.90;;
37297;SDS011;30517;51.932;4.278;2023-03-05T09:59:30;1.90;;;0.60;;
37297;SDS011;30517;51.932;4.278;2023-03-05T10:02:34;0.88;;;0.40;;
37297;SDS011;30517;51.932;4.278;2023-03-05T10:05:19;0.38;;;0.38;;
37297;SDS011;30517;51.932;4.278;2023-03-05T10:08:04;1.02;;;0.60;;
37297;SDS011;30517;51.932;4.278;2023-03-05T10:10:46;0.38;;;0.38;;
37297;SDS011;30517;51.932;4.278;2023-03-05T10:13:35;0.88;;;0.43;;
37297;SDS011;30517;51.932;4.278;2023-03-05T10:16:32;1.02;;;0.47;;
37297;SDS011;30517;51.932;4.278;2023-03-05T10:22:18;0.63;;;0.40;;
37297;SDS011;30517;51.932;4.278;2023-03-05T10:27:55;0.47;;;0.45;;
37297;SDS011;30517;51.932;4.278;2023-03-05T10:30:52;5.72;;;1.08;;
37297;SDS011;30517;51.932;4.278;2023-03-05T10:36:45;0.43;;;0.40;;
37297;SDS011;30517;51.932;4.278;2023-03-05T10:42:52;1.40;;;0.47;;
37297;SDS011;30517;51.932;4.278;2023-03-05T10:45:40;0.82;;;0.50;;
37297;SDS011;30517;51.932;4.278;2023-03-05T10:48:37;1.25;;;0.50;;
37297;SDS011;30517;51.932;4.278;2023-03-05T10:54:25;0.40;;;0.40;;
37297;SDS011;30517;51.932;4.278;2023-03-05T11:00:06;0.85;;;0.60;;
37297;SDS011;30517;51.932;4.278;2023-03-05T11:02:57;0.70;;;0.43;;
37297;SDS011;30517;51.932;4.278;2023-03-05T11:05:59;0.65;;;0.47;;
37297;SDS011;30517;51.932;4.278;2023-03-05T11:08:41;2.42;;;0.75;;
37297;SDS011;30517;51.932;4.278;2023-03-05T11:11:22;0.57;;;0.50;;
37297;SDS011;30517;51.932;4.278;2023-03-05T11:14:03;0.63;;;0.52;;
37297;SDS011;30517;51.932;4.278;2023-03-05T11:16:45;1.05;;;0.57;;
37297;SDS011;30517;51.932;4.278;2023-03-05T11:19:29;3.75;;;0.63;;
37297;SDS011;30517;51.932;4.278;2023-03-05T11:22:16;2.50;;;0.77;;
37297;SDS011;30517;51.932;4.278;2023-03-05T11:25:04;0.98;;;0.55;;
37297;SDS011;30517;51.932;4.278;2023-03-05T11:27:57;0.40;;;0.30;;
37297;SDS011;30517;51.932;4.278;2023-03-05T11:30:40;1.70;;;1.08;;
37297;SDS011;30517;51.932;4.278;2023-03-05T11:33:21;0.77;;;0.50;;
37297;SDS011;30517;51.932;4.278;2023-03-05T11:36:17;1.20;;;0.70;;
37297;SDS011;30517;51.932;4.278;2023-03-05T11:41:47;1.08;;;0.63;;
37297;SDS011;30517;51.932;4.278;2023-03-05T11:44:33;1.35;;;0.60;;
37297;SDS011;30517;51.932;4.278;2023-03-05T11:50:27;1.10;;;0.73;;
37297;SDS011;30517;51.932;4.278;2023-03-05T11:53:29;0.82;;;0.60;;
37297;SDS011;30517;51.932;4.278;2023-03-05T11:56:17;1.50;;;0.73;;
37297;SDS011;30517;51.932;4.278;2023-03-05T11:59:17;1.42;;;0.70;;
37297;SDS011;30517;51.932;4.278;2023-03-05T12:02:02;2.45;;;0.57;;
37297;SDS011;30517;51.932;4.278;2023-03-05T12:04:55;0.30;;;0.30;;
37297;SDS011;30517;51.932;4.278;2023-03-05T12:07:39;1.05;;;0.60;;
37297;SDS011;30517;51.932;4.278;2023-03-05T12:10:24;3.50;;;0.60;;
37297;SDS011;30517;51.932;4.278;2023-03-05T12:13:11;0.75;;;0.50;;
37297;SDS011;30517;51.932;4.278;2023-03-05T12:18:50;1.58;;;0.60;;
37297;SDS011;30517;51.932;4.278;2023-03-05T12:21:41;1.25;;;0.65;;
37297;SDS011;30517;51.932;4.278;2023-03-05T12:27:05;3.03;;;0.85;;
37297;SDS011;30517;51.932;4.278;2023-03-05T12:29:49;0.45;;;0.45;;
37297;SDS011;30517;51.932;4.278;2023-03-05T12:35:28;1.45;;;0.65;;
37297;SDS011;30517;51.932;4.278;2023-03-05T12:38:27;0.55;;;0.45;;
37297;SDS011;30517;51.932;4.278;2023-03-05T12:49:45;2.13;;;0.60;;
37297;SDS011;30517;51.932;4.278;2023-03-05T12:52:29;0.50;;;0.50;;
37297;SDS011;30517;51.932;4.278;2023-03-05T12:55:21;1.27;;;0.63;;
37297;SDS011;30517;51.932;4.278;2023-03-05T13:04:30;1.33;;;0.70;;
37297;SDS011;30517;51.932;4.278;2023-03-05T13:07:15;1.75;;;0.80;;
37297;SDS011;30517;51.932;4.278;2023-03-05T13:09:57;1.07;;;0.57;;
37297;SDS011;30517;51.932;4.278;2023-03-05T13:12:47;3.80;;;1.10;;
37297;SDS011;30517;51.932;4.278;2023-03-05T13:15:32;2.57;;;0.83;;
37297;SDS011;30517;51.932;4.278;2023-03-05T13:18:15;1.63;;;0.80;;
37297;SDS011;30517;51.932;4.278;2023-03-05T13:21:04;1.42;;;0.55;;
37297;SDS011;30517;51.932;4.278;2023-03-05T13:23:53;0.85;;;0.55;;
37297;SDS011;30517;51.932;4.278;2023-03-05T13:26:38;1.52;;;0.80;;
37297;SDS011;30517;51.932;4.278;2023-03-05T13:29:21;2.78;;;1.10;;
37297;SDS011;30517;51.932;4.278;2023-03-05T13:32:18;3.10;;;0.90;;
37297;SDS011;30517;51.932;4.278;2023-03-05T13:35:10;2.97;;;0.90;;
37297;SDS011;30517;51.932;4.278;2023-03-05T13:37:52;3.53;;;0.80;;
37297;SDS011;30517;51.932;4.278;2023-03-05T13:40:33;0.68;;;0.40;;
37297;SDS011;30517;51.932;4.278;2023-03-05T13:43:15;1.30;;;0.60;;
37297;SDS011;30517;51.932;4.278;2023-03-05T13:45:59;1.10;;;0.70;;
37297;SDS011;30517;51.932;4.278;2023-03-05T13:48:40;2.65;;;0.80;;
37297;SDS011;30517;51.932;4.278;2023-03-05T13:51:21;0.82;;;0.52;;
37297;SDS011;30517;51.932;4.278;2023-03-05T13:54:02;1.65;;;0.85;;
37297;SDS011;30517;51.932;4.278;2023-03-05T13:56:59;2.08;;;0.90;;
37297;SDS011;30517;51.932;4.278;2023-03-05T13:59:50;1.90;;;0.82;;
37297;SDS011;30517;51.932;4.278;2023-03-05T14:02:32;3.45;;;0.90;;
37297;SDS011;30517;51.932;4.278;2023-03-05T14:05:13;2.97;;;0.80;;
37297;SDS011;30517;51.932;4.278;2023-03-05T14:07:55;1.65;;;0.77;;
37297;SDS011;30517;51.932;4.278;2023-03-05T14:10:36;3.13;;;1.08;;
37297;SDS011;30517;51.932;4.278;2023-03-05T14:13:23;3.03;;;1.13;;
37297;SDS011;30517;51.932;4.278;2023-03-05T14:18:58;2.95;;;0.80;;
37297;SDS011;30517;51.932;4.278;2023-03-05T14:21:42;3.60;;;1.00;;
37297;SDS011;30517;51.932;4.278;2023-03-05T14:24:25;3.47;;;1.10;;
37297;SDS011;30517;51.932;4.278;2023-03-05T14:27:16;1.90;;;1.17;;
37297;SDS011;30517;51.932;4.278;2023-03-05T14:30:01;2.55;;;0.93;;
37297;SDS011;30517;51.932;4.278;2023-03-05T14:32:44;1.33;;;0.70;;
37297;SDS011;30517;51.932;4.278;2023-03-05T14:35:26;1.88;;;0.80;;
37297;SDS011;30517;51.932;4.278;2023-03-05T14:38:14;3.88;;;1.10;;
37297;SDS011;30517;51.932;4.278;2023-03-05T14:41:18;1.67;;;0.82;;
37297;SDS011;30517;51.932;4.278;2023-03-05T14:44:01;1.45;;;0.65;;
37297;SDS011;30517;51.932;4.278;2023-03-05T14:46:48;1.80;;;0.85;;
37297;SDS011;30517;51.932;4.278;2023-03-05T14:49:29;1.80;;;1.00;;
37297;SDS011;30517;51.932;4.278;2023-03-05T14:52:17;2.38;;;1.02;;
37297;SDS011;30517;51.932;4.278;2023-03-05T14:55:00;2.83;;;0.90;;
37297;SDS011;30517;51.932;4.278;2023-03-05T14:57:41;1.30;;;0.80;;
37297;SDS011;30517;51.932;4.278;2023-03-05T15:00:23;0.65;;;0.60;;
37297;SDS011;30517;51.932;4.278;2023-03-05T15:03:09;1.58;;;0.82;;
37297;SDS011;30517;51.932;4.278;2023-03-05T15:05:51;2.60;;;1.20;;
37297;SDS011;30517;51.932;4.278;2023-03-05T15:08:34;1.60;;;0.77;;
37297;SDS011;30517;51.932;4.278;2023-03-05T15:11:15;0.70;;;0.70;;
37297;SDS011;30517;51.932;4.278;2023-03-05T15:13:56;1.38;;;1.05;;
37297;SDS011;30517;51.932;4.278;2023-03-05T15:16:38;0.88;;;0.73;;
37297;SDS011;30517;51.932;4.278;2023-03-05T15:19:22;0.80;;;0.70;;
37297;SDS011;30517;51.932;4.278;2023-03-05T15:22:03;1.17;;;0.80;;
37297;SDS011;30517;51.932;4.278;2023-03-05T15:24:44;1.73;;;0.82;;
37297;SDS011;30517;51.932;4.278;2023-03-05T15:27:25;1.25;;;0.70;;
37297;SDS011;30517;51.932;4.278;2023-03-05T15:30:06;2.42;;;0.90;;
37297;SDS011;30517;51.932;4.278;2023-03-05T15:32:52;3.42;;;0.88;;
37297;SDS011;30517;51.932;4.278;2023-03-05T15:35:35;0.90;;;0.60;;
37297;SDS011;30517;51.932;4.278;2023-03-05T15:38:16;1.80;;;0.80;;
37297;SDS011;30517;51.932;4.278;2023-03-05T15:40:57;1.88;;;0.95;;
37297;SDS011;30517;51.932;4.278;2023-03-05T15:43:37;4.13;;;1.20;;
37297;SDS011;30517;51.932;4.278;2023-03-05T15:46:18;0.82;;;0.60;;
37297;SDS011;30517;51.932;4.278;2023-03-05T15:48:59;1.58;;;0.70;;
37297;SDS011;30517;51.932;4.278;2023-03-05T15:51:41;1.08;;;0.70;;
37297;SDS011;30517;51.932;4.278;2023-03-05T15:54:22;1.33;;;0.80;;
37297;SDS011;30517;51.932;4.278;2023-03-05T15:57:04;0.70;;;0.60;;
37297;SDS011;30517;51.932;4.278;2023-03-05T15:59:48;1.88;;;0.93;;
37297;SDS011;30517;51.932;4.278;2023-03-05T16:02:29;1.30;;;0.73;;
37297;SDS011;30517;51.932;4.278;2023-03-05T16:05:10;1.25;;;0.70;;
37297;SDS011;30517;51.932;4.278;2023-03-05T16:07:51;1.35;;;0.65;;
37297;SDS011;30517;51.932;4.278;2023-03-05T16:10:33;1.67;;;0.80;;
37297;SDS011;30517;51.932;4.278;2023-03-05T16:13:17;1.20;;;0.73;;
37297;SDS011;30517;51.932;4.278;2023-03-05T16:15:58;3.25;;;0.85;;
37297;SDS011;30517;51.932;4.278;2023-03-05T16:18:39;1.13;;;0.65;;
37297;SDS011;30517;51.932;4.278;2023-03-05T16:21:22;1.05;;;0.68;;
37297;SDS011;30517;51.932;4.278;2023-03-05T16:24:03;3.60;;;0.85;;
37297;SDS011;30517;51.932;4.278;2023-03-05T16:26:44;2.83;;;0.80;;
37297;SDS011;30517;51.932;4.278;2023-03-05T16:29:25;1.27;;;0.80;;
37297;SDS011;30517;51.932;4.278;2023-03-05T16:32:07;1.48;;;0.60;;
37297;SDS011;30517;51.932;4.278;2023-03-05T16:34:48;0.75;;;0.65;;
37297;SDS011;30517;51.932;4.278;2023-03-05T16:37:29;0.93;;;0.60;;
37297;SDS011;30517;51.932;4.278;2023-03-05T16:40:10;2.35;;;0.68;;
37297;SDS011;30517;51.932;4.278;2023-03-05T16:42:52;1.60;;;0.80;;
37297;SDS011;30517;51.932;4.278;2023-03-05T16:45:32;1.33;;;0.70;;
37297;SDS011;30517;51.932;4.278;2023-03-05T16:48:13;2.47;;;0.95;;
37297;SDS011;30517;51.932;4.278;2023-03-05T16:50:54;1.73;;;0.80;;
37297;SDS011;30517;51.932;4.278;2023-03-05T16:53:37;1.55;;;0.80;;
37297;SDS011;30517;51.932;4.278;2023-03-05T16:56:18;1.48;;;0.75;;
37297;SDS011;30517;51.932;4.278;2023-03-05T16:58:59;2.58;;;1.00;;
37297;SDS011;30517;51.932;4.278;2023-03-05T17:01:39;3.50;;;1.00;;
37297;SDS011;30517;51.932;4.278;2023-03-05T17:04:20;1.67;;;0.77;;
37297;SDS011;30517;51.932;4.278;2023-03-05T17:07:01;0.82;;;0.70;;
37297;SDS011;30517;51.932;4.278;2023-03-05T17:09:44;1.47;;;0.80;;
37297;SDS011;30517;51.932;4.278;2023-03-05T17:12:26;1.58;;;0.90;;
37297;SDS011;30517;51.932;4.278;2023-03-05T17:15:07;1.63;;;1.17;;
37297;SDS011;30517;51.932;4.278;2023-03-05T17:17:49;1.80;;;0.65;;
37297;SDS011;30517;51.932;4.278;2023-03-05T17:20:30;1.48;;;0.68;;
37297;SDS011;30517;51.932;4.278;2023-03-05T17:23:14;1.27;;;0.80;;
37297;SDS011;30517;51.932;4.278;2023-03-05T17:25:55;1.80;;;0.73;;